Time;durP1;ratioP1;P1;durP2;ratioP2;P2;SDS_P1;SDS_P2;PMS_P1;PMS_P2;Temp;Humidity;BMP_temperature;BMP_pressure;BME280_temperature;BME280_humidity;BME280_pressure;Samples;Min_cycle;Max_cycle;Signal;HPM_P1;HPM_P2
2023/01/19 00:00:34;;;;;;;32.45;21.42;;;;;;;0.03;100.00;99964.41;5052210;28;20025;-72
2023/01/19 00:02:59;;;;;;;32.78;20.90;;;;;;;0.09;100.00;99963.72;5052240;28;20036;-73
2023/01/19 00:05:24;;;;;;;31.60;20.98;;;;;;;0.04;100.00;99966.16;5052231;28;20376;-87
2023/01/19 00:07:49;;;;;;;31.63;20.77;;;;;;;0.08;100.00;99968.03;5052212;28;20028;-87
2023/01/19 00:10:15;;;;;;;31.83;20.38;;;;;;;0.07;100.00;99970.56;5052360;28;20120;-87
2023/01/19 00:12:41;;;;;;;30.77;20.05;;;;;;;0.05;100.00;99972.25;5033990;28;20045;-87
2023/01/19 00:15:07;;;;;;;31.38;20.40;;;;;;;0.11;100.00;99973.31;5052062;28;20041;-87
2023/01/19 00:17:32;;;;;;;31.85;19.48;;;;;;;0.14;100.00;99964.75;5053737;28;20025;-87
2023/01/19 00:19:57;;;;;;;31.60;21.13;;;;;;;0.12;100.00;99980.28;5055997;28;20438;-78
2023/01/19 00:22:23;;;;;;;31.13;20.92;;;;;;;0.10;100.00;99975.88;5055993;28;20369;-78
2023/01/19 00:24:49;;;;;;;33.30;21.08;;;;;;;0.06;100.00;99974.00;5056074;28;20108;-75
2023/01/19 00:27:14;;;;;;;33.63;21.23;;;;;;;0.07;100.00;99978.38;5055877;28;20033;-87
2023/01/19 00:29:40;;;;;;;32.70;21.38;;;;;;;0.01;100.00;99979.06;5056097;28;20071;-86
2023/01/19 00:32:05;;;;;;;34.03;22.35;;;;;;;0.01;100.00;99985.97;5056023;28;20063;-79
2023/01/19 00:34:48;;;;;;;33.13;22.10;;;;;;;0.03;100.00;99992.09;5055686;28;20087;-74
2023/01/19 00:37:14;;;;;;;33.22;21.45;;;;;;;0.01;100.00;100001.56;5055769;28;20036;-72
2023/01/19 00:39:39;;;;;;;32.88;22.35;;;;;;;0.02;100.00;99998.16;5056130;28;20021;-72
2023/01/19 00:44:48;;;;;;;34.05;21.90;;;;;;;-0.04;100.00;99983.22;5055864;28;20463;-72
2023/01/19 00:47:14;;;;;;;34.05;21.80;;;;;;;-0.03;100.00;99980.69;5055405;28;20061;-72
2023/01/19 00:49:39;;;;;;;32.75;21.58;;;;;;;-0.05;100.00;99974.53;5055538;28;20089;-74
2023/01/19 00:52:04;;;;;;;32.25;21.63;;;;;;;-0.15;100.00;99980.25;5055434;28;20468;-72
2023/01/19 00:54:30;;;;;;;32.80;20.83;;;;;;;-0.12;100.00;99975.16;5055331;28;20052;-73
2023/01/19 00:56:55;;;;;;;33.38;21.42;;;;;;;-0.14;100.00;99976.84;5055492;28;20025;-72
2023/01/19 00:59:20;;;;;;;32.80;20.15;;;;;;;-0.15;100.00;99993.25;5055293;28;20456;-72
2023/01/19 01:01:46;;;;;;;32.53;20.65;;;;;;;-0.13;100.00;99977.69;5055096;28;20025;-72
2023/01/19 01:04:13;;;;;;;33.20;21.08;;;;;;;-0.18;100.00;99974.97;5055670;28;20488;-72
2023/01/19 01:14:50;;;;;;;32.50;20.10;;;;;;;-0.18;100.00;99977.56;5000765;28;20052;-72
2023/01/19 01:17:23;;;;;;;31.92;19.60;;;;;;;-0.11;100.00;99991.66;5054718;28;20333;-72
2023/01/19 01:19:48;;;;;;;;;;;;;;;-0.18;100.00;99982.75;5055478;28;20083;-72
2023/01/19 01:22:14;;;;;;;31.45;19.70;;;;;;;-0.08;100.00;99997.81;5055327;28;19917;-73
2023/01/19 01:24:39;;;;;;;32.55;19.60;;;;;;;-0.09;100.00;99990.84;5054914;28;20033;-72
2023/01/19 01:27:05;;;;;;;31.70;19.45;;;;;;;0.01;100.00;100001.56;5054919;28;20035;-72
2023/01/19 01:29:30;;;;;;;30.42;17.90;;;;;;;0.11;100.00;99993.25;5037019;28;20024;-74
2023/01/19 01:31:55;;;;;;;29.33;17.35;;;;;;;0.16;100.00;99995.16;5054749;28;20080;-74
2023/01/19 01:34:21;;;;;;;29.67;17.67;;;;;;;0.20;100.00;99983.13;5054640;28;20025;-85
2023/01/19 01:36:46;;;;;;;30.40;17.85;;;;;;;0.25;100.00;99991.97;5054479;28;20500;-73
2023/01/19 01:39:11;;;;;;;29.30;17.10;;;;;;;0.24;100.00;99984.13;5054944;28;20525;-86
2023/01/19 01:41:36;;;;;;;28.83;16.92;;;;;;;0.27;100.00;99995.50;5054476;28;20025;-87
2023/01/19 01:44:07;;;;;;;28.38;16.75;;;;;;;0.29;100.00;100001.66;5054614;28;20075;-83
2023/01/19 01:46:32;;;;;;;28.73;16.20;;;;;;;0.25;100.00;99986.78;5054543;28;20495;-82
2023/01/19 01:49:12;;;;;;;30.00;16.67;;;;;;;0.25;100.00;100004.97;5054283;28;20029;-73
2023/01/19 01:51:53;;;;;;;30.50;17.02;;;;;;;0.28;100.00;100004.19;5054134;28;20058;-74
2023/01/19 01:54:20;;;;;;;30.30;17.10;;;;;;;0.16;100.00;100004.66;5054190;28;20025;-75
2023/01/19 01:56:48;;;;;;;32.33;17.80;;;;;;;0.01;100.00;100011.97;5054472;28;20040;-75
2023/01/19 01:59:25;;;;;;;30.33;16.95;;;;;;;-0.05;100.00;100003.13;5054571;28;20021;-72
2023/01/19 02:04:52;;;;;;;31.92;18.48;;;;;;;-0.51;100.00;100011.94;5054219;28;20117;-72
2023/01/19 02:15:40;;;;;;;37.65;23.77;;;;;;;-0.78;100.00;100002.31;5054117;28;20400;-86
2023/01/19 02:18:05;;;;;;;37.67;22.50;;;;;;;-0.82;100.00;100010.81;5053763;28;20021;-71
2023/01/19 02:20:34;;;;;;;36.28;22.48;;;;;;;-0.85;100.00;100015.00;5053993;28;20040;-71
2023/01/19 02:23:05;;;;;;;38.38;23.02;;;;;;;-0.91;100.00;100019.13;5053785;28;20483;-71
2023/01/19 02:25:31;;;;;;;35.65;22.15;;;;;;;-0.89;100.00;100014.00;5053662;28;20021;-71
2023/01/19 02:27:56;;;;;;;41.13;23.27;;;;;;;-0.86;100.00;100019.28;5053547;28;20027;-72
2023/01/19 02:30:22;;;;;;;39.50;25.25;;;;;;;-0.75;100.00;100017.97;5053901;28;20079;-71
2023/01/19 02:32:48;;;;;;;38.70;25.95;;;;;;;-0.66;100.00;100024.34;5053454;28;20025;-73
2023/01/19 02:35:14;;;;;;;40.03;24.92;;;;;;;-0.55;100.00;100025.63;5053402;28;20112;-71
2023/01/19 02:37:42;;;;;;;38.22;25.98;;;;;;;-0.54;100.00;100032.56;5053598;28;20530;-71
2023/01/19 02:40:12;;;;;;;40.25;25.77;;;;;;;-0.57;100.00;100027.28;5052744;28;20063;-73
2023/01/19 02:42:44;;;;;;;39.95;27.15;;;;;;;-0.59;100.00;100035.00;5053207;28;20071;-73
2023/01/19 02:45:13;;;;;;;39.50;27.05;;;;;;;-0.81;100.00;100028.16;5053444;28;20062;-71
2023/01/19 02:47:51;;;;;;;42.65;27.95;;;;;;;-0.94;100.00;100041.50;5035292;28;20024;-71
2023/01/19 02:50:42;;;;;;;43.58;29.15;;;;;;;-1.10;100.00;100037.44;5053117;28;20041;-71
2023/01/19 02:53:26;;;;;;;45.92;30.92;;;;;;;-1.10;100.00;100037.44;5051391;28;20500;-71
2023/01/19 02:56:28;;;;;;;48.92;32.00;;;;;;;-1.17;100.00;100049.28;5049127;28;20044;-70
2023/01/19 02:59:02;;;;;;;48.30;33.25;;;;;;;-1.21;100.00;100043.91;5053383;28;20389;-71
2023/01/19 03:01:36;;;;;;;46.90;33.67;;;;;;;-1.21;100.00;100052.56;5049757;28;20025;-70
2023/01/19 03:04:43;;;;;;;49.08;34.25;;;;;;;-1.26;100.00;100047.19;5052835;28;20028;-70
2023/01/19 03:07:20;;;;;;;49.65;35.75;;;;;;;-1.26;100.00;100051.50;5051369;28;20111;-70
2023/01/19 03:09:52;;;;;;;53.20;37.85;;;;;;;-1.29;100.00;100064.38;5052990;28;20056;-70
2023/01/19 03:12:51;;;;;;;56.03;38.95;;;;;;;-1.35;100.00;100061.53;5052719;28;20028;-69
2023/01/19 03:15:26;;;;;;;54.92;39.13;;;;;;;-1.33;100.00;100062.47;5052388;28;20048;-70
2023/01/19 03:17:52;;;;;;;55.80;39.95;;;;;;;-1.35;100.00;100064.13;5048766;28;20025;-70
2023/01/19 03:20:23;;;;;;;58.60;42.17;;;;;;;-1.32;100.00;100066.84;5052644;28;20060;-70
2023/01/19 03:22:54;;;;;;;58.88;42.58;;;;;;;-1.32;100.00;100069.44;5052688;28;20029;-70
2023/01/19 03:25:22;;;;;;;61.63;42.72;;;;;;;-1.36;100.00;100072.72;5052736;28;20025;-70
2023/01/19 03:27:51;;;;;;;62.10;42.58;;;;;;;-1.40;100.00;100082.06;5052552;28;20549;-70
2023/01/19 03:30:26;;;;;;;61.35;41.55;;;;;;;-1.39;100.00;100072.59;5052520;28;20033;-70
2023/01/19 03:32:55;;;;;;;59.85;42.92;;;;;;;-1.40;100.00;100076.88;5048604;28;20032;-70
2023/01/19 03:35:23;;;;;;;66.32;43.70;;;;;;;-1.40;100.00;100074.28;5052427;28;20106;-70
2023/01/19 03:37:53;;;;;;;67.45;43.47;;;;;;;-1.45;100.00;100073.25;5052473;28;20021;-70
2023/01/19 03:40:20;;;;;;;66.68;41.15;;;;;;;-1.42;100.00;100073.34;5052350;28;20074;-70
2023/01/19 03:42:48;;;;;;;59.70;40.78;;;;;;;-1.43;100.00;100087.13;5052520;28;20037;-70
2023/01/19 03:45:14;;;;;;;68.85;41.95;;;;;;;-1.48;100.00;100084.38;5052357;28;20098;-70
2023/01/19 03:47:39;;;;;;;66.63;42.03;;;;;;;-1.50;100.00;100090.31;5052333;28;20528;-70
2023/01/19 03:50:10;;;;;;;72.88;42.10;;;;;;;-1.49;100.00;100082.59;5052516;28;20028;-70
2023/01/19 03:52:36;;;;;;;64.40;41.50;;;;;;;-1.53;100.00;100093.69;5051328;28;20040;-70
2023/01/19 03:55:03;;;;;;;61.05;40.58;;;;;;;-1.50;100.00;100098.97;5052332;28;20037;-70
2023/01/19 03:57:29;;;;;;;60.85;40.25;;;;;;;-1.51;100.00;100104.09;5052433;28;20107;-71
2023/01/19 03:59:55;;;;;;;74.03;40.90;;;;;;;-1.51;100.00;100092.03;5052275;28;20457;-74
2023/01/19 04:02:21;;;;;;;59.55;39.08;;;;;;;-1.50;100.00;100100.66;5052182;28;20025;-70
2023/01/19 04:04:47;;;;;;;57.90;38.92;;;;;;;-1.47;100.00;100116.34;5052424;28;20040;-70
2023/01/19 04:07:12;;;;;;;56.20;38.63;;;;;;;-1.44;100.00;100117.38;5052168;28;20026;-70
2023/01/19 04:09:38;;;;;;;58.95;37.47;;;;;;;-1.49;100.00;100111.09;5052349;28;20032;-70
2023/01/19 04:12:03;;;;;;;56.03;39.58;;;;;;;-1.51;100.00;100128.31;5052101;28;20476;-70
2023/01/19 04:14:29;;;;;;;56.70;35.47;;;;;;;-1.50;100.00;100126.59;5030750;28;20072;-70
2023/01/19 04:16:55;;;;;;;47.05;32.65;;;;;;;-1.39;100.00;100134.84;5032641;28;20033;-70
2023/01/19 04:19:20;;;;;;;52.70;36.15;;;;;;;-1.51;100.00;100136.09;5032185;28;20140;-70
2023/01/19 04:21:49;;;;;;;54.13;33.20;;;;;;;-1.50;100.00;100134.38;5032161;28;20651;-70
2023/01/19 04:24:15;;;;;;;51.75;33.10;;;;;;;-1.52;100.00;100136.91;5032277;28;20124;-70
2023/01/19 04:26:40;;;;;;;54.20;30.95;;;;;;;-1.53;100.00;100147.22;5032177;28;20516;-70
2023/01/19 04:29:06;;;;;;;51.00;32.40;;;;;;;-1.53;100.00;100144.63;5032027;28;20022;-71
2023/01/19 04:31:31;;;;;;;49.70;30.80;;;;;;;-1.53;100.00;100150.72;5032291;28;20026;-70
2023/01/19 04:33:57;;;;;;;44.97;29.42;;;;;;;-1.55;100.00;100154.94;5032025;28;20037;-71
2023/01/19 04:36:22;;;;;;;43.90;26.05;;;;;;;-1.55;100.00;100149.75;5032128;28;20072;-70
2023/01/19 04:38:48;;;;;;;42.97;24.23;;;;;;;-1.55;100.00;100151.47;5032213;28;20034;-78
2023/01/19 04:41:13;;;;;;;40.35;23.88;;;;;;;-1.56;100.00;100153.16;5031995;28;20033;-71
2023/01/19 04:43:39;;;;;;;42.13;23.88;;;;;;;-1.55;100.00;100159.25;5031917;28;20477;-70
2023/01/19 04:46:05;;;;;;;39.58;22.25;;;;;;;-1.56;100.00;100163.53;5032172;28;20034;-71
2023/01/19 04:48:31;;;;;;;40.20;23.55;;;;;;;-1.56;100.00;100166.13;5031963;28;20075;-70
2023/01/19 04:50:56;;;;;;;36.90;21.02;;;;;;;-1.55;100.00;100160.13;5032104;28;20037;-71
2023/01/19 04:53:22;;;;;;;40.67;20.60;;;;;;;-1.59;100.00;100148.75;5028034;28;20527;-83
2023/01/19 04:55:52;;;;;;;35.80;19.90;;;;;;;-1.54;100.00;100120.41;5031816;28;20428;-71
2023/01/19 04:58:17;;;;;;;35.92;21.10;;;;;;;-1.52;100.00;100123.06;5031783;28;20519;-70
2023/01/19 05:00:43;;;;;;;39.67;21.42;;;;;;;-1.53;100.00;100108.31;5031996;28;20029;-83
2023/01/19 05:03:08;;;;;;;39.70;21.17;;;;;;;-1.51;100.00;100107.56;5032411;28;20396;-71
2023/01/19 05:05:33;;;;;;;39.53;22.65;;;;;;;-1.52;100.00;100110.97;5035308;28;20025;-70
2023/01/19 05:07:59;;;;;;;38.95;23.73;;;;;;;-1.54;100.00;100099.69;5035487;28;20047;-70
2023/01/19 05:10:25;;;;;;;39.20;23.52;;;;;;;-1.49;100.00;100103.31;5035603;28;20065;-71
2023/01/19 05:12:50;;;;;;;41.58;25.10;;;;;;;-1.48;100.00;100107.69;5037507;28;20030;-70
2023/01/19 05:15:15;;;;;;;39.45;24.20;;;;;;;-1.48;100.00;100096.44;5055055;28;20105;-71
2023/01/19 05:17:41;;;;;;;38.85;22.73;;;;;;;-1.48;100.00;100094.72;5054916;28;20058;-70
2023/01/19 05:20:09;;;;;;;37.83;23.35;;;;;;;-1.50;100.00;100091.22;5055022;28;20029;-85
2023/01/19 05:22:34;;;;;;;39.40;22.13;;;;;;;-1.49;100.00;100100.72;5054813;28;20040;-70
2023/01/19 05:25:00;;;;;;;37.38;21.70;;;;;;;-1.49;100.00;100105.91;5054871;28;20026;-70
2023/01/19 05:27:26;;;;;;;36.92;20.73;;;;;;;-1.47;100.00;100104.28;5055094;28;20111;-73
2023/01/19 05:29:51;;;;;;;37.17;20.33;;;;;;;-1.46;100.00;100121.59;5054971;28;20036;-70
2023/01/19 05:32:16;;;;;;;38.40;20.73;;;;;;;-1.46;100.00;100123.31;5054712;28;20122;-73
2023/01/19 05:34:42;;;;;;;43.28;23.98;;;;;;;-1.43;100.00;100129.53;5054874;28;20484;-72
2023/01/19 05:37:07;;;;;;;44.20;25.60;;;;;;;-1.45;100.00;100131.16;5054613;28;20490;-70
2023/01/19 05:39:32;;;;;;;46.15;27.08;;;;;;;-1.47;100.00;100138.00;5054647;28;20075;-70
2023/01/19 05:41:58;;;;;;;51.75;28.33;;;;;;;-1.47;100.00;100139.69;5055008;28;20439;-70
2023/01/19 05:44:23;;;;;;;51.13;29.48;;;;;;;-1.47;100.00;100132.81;5054466;28;20438;-72
2023/01/19 05:46:48;;;;;;;52.03;29.52;;;;;;;-1.41;100.00;100127.00;5036594;28;20029;-70
2023/01/19 05:49:14;;;;;;;51.00;30.48;;;;;;;-1.39;100.00;100132.25;5054595;28;20020;-70
2023/01/19 05:51:44;;;;;;;51.92;30.48;;;;;;;-1.37;100.00;100133.19;5054331;28;20495;-70
2023/01/19 05:54:11;;;;;;;48.70;27.88;;;;;;;-1.33;100.00;100137.69;5054358;28;20025;-70
2023/01/19 05:56:38;;;;;;;50.60;28.90;;;;;;;-1.38;100.00;100142.69;5054399;28;20108;-70
2023/01/19 05:59:03;;;;;;;54.10;30.45;;;;;;;-1.36;100.00;100142.75;5054296;28;20087;-70
2023/01/19 06:01:29;;;;;;;52.20;30.70;;;;;;;-1.38;100.00;100141.78;5054139;28;20029;-70
2023/01/19 06:03:54;;;;;;;53.33;31.73;;;;;;;-1.42;100.00;100141.66;5054278;28;20075;-70
2023/01/19 06:06:20;;;;;;;55.50;33.47;;;;;;;-1.36;100.00;100150.53;5054000;28;20025;-70
2023/01/19 06:08:45;;;;;;;52.75;32.53;;;;;;;-1.32;100.00;100147.25;5054190;28;20534;-70
2023/01/19 06:11:11;;;;;;;54.85;32.65;;;;;;;-1.34;100.00;100149.78;5053944;28;20064;-70
2023/01/19 06:13:38;;;;;;;54.80;33.47;;;;;;;-1.28;100.00;100149.09;5053684;28;20080;-71
2023/01/19 06:16:05;;;;;;;54.58;32.35;;;;;;;-1.33;100.00;100159.28;5053168;28;20029;-71
2023/01/19 06:18:30;;;;;;;54.42;33.53;;;;;;;-1.29;100.00;100162.91;5053835;28;20029;-71
2023/01/19 06:20:58;;;;;;;56.83;32.92;;;;;;;-1.33;100.00;100169.66;5053874;28;20082;-74
2023/01/19 06:23:30;;;;;;;54.67;33.35;;;;;;;-1.33;100.00;100161.88;5050051;28;20032;-71
2023/01/19 06:25:55;;;;;;;57.53;38.05;;;;;;;-1.28;100.00;100172.44;5050022;28;20048;-73
2023/01/19 06:28:21;;;;;;;60.22;35.78;;;;;;;-1.33;100.00;100167.06;5035857;28;20025;-71
2023/01/19 06:30:51;;;;;;;62.80;40.40;;;;;;;-1.26;100.00;100165.63;5053848;28;20111;-71
2023/01/19 06:33:17;;;;;;;68.00;44.40;;;;;;;-1.26;100.00;100178.59;5053589;28;20438;-71
2023/01/19 06:35:47;;;;;;;74.40;47.17;;;;;;;-1.20;100.00;100177.97;5053534;28;20021;-71
2023/01/19 06:38:12;;;;;;;75.30;50.10;;;;;;;-1.23;100.00;100179.59;5053381;28;20029;-71
2023/01/19 06:40:39;;;;;;;76.93;50.00;;;;;;;-1.23;100.00;100176.13;5052559;28;20025;-74
2023/01/19 06:43:05;;;;;;;82.07;52.72;;;;;;;-1.28;100.00;100177.63;5034087;28;20057;-76
2023/01/19 06:45:30;;;;;;;85.43;53.20;;;;;;;-1.24;100.00;100179.53;5023728;28;20095;-78
2023/01/19 06:47:55;;;;;;;86.63;52.45;;;;;;;-1.27;100.00;100188.09;5052916;28;20035;-76
2023/01/19 06:50:21;;;;;;;90.47;54.47;;;;;;;-1.26;100.00;100188.97;5053568;28;20063;-75
2023/01/19 06:52:51;;;;;;;92.10;56.72;;;;;;;-1.25;100.00;100195.94;5036399;28;20067;-73
2023/01/19 06:55:17;;;;;;;92.78;59.05;;;;;;;-1.20;100.00;100185.75;5053455;28;20493;-75
2023/01/19 06:57:43;;;;;;;100.88;62.88;;;;;;;-1.14;100.00;100210.22;5052332;28;20037;-73
2023/01/19 07:00:10;;;;;;;101.30;61.92;;;;;;;-1.17;100.00;100210.09;5035377;28;20120;-74
2023/01/19 07:02:44;;;;;;;100.28;62.22;;;;;;;-1.14;100.00;100217.13;5051750;28;20072;-73
2023/01/19 07:05:13;;;;;;;108.05;65.15;;;;;;;-1.13;100.00;100217.19;5051542;28;20491;-73
2023/01/19 07:07:38;;;;;;;103.03;62.33;;;;;;;-1.12;100.00;100218.97;5052489;28;20059;-73
2023/01/19 07:10:07;;;;;;;106.25;65.57;;;;;;;-1.14;100.00;100220.59;5056094;28;20099;-74
2023/01/19 07:12:32;;;;;;;110.57;66.10;;;;;;;-1.14;100.00;100217.13;5051954;28;20491;-82
2023/01/19 07:14:59;;;;;;;110.95;64.63;;;;;;;-1.11;100.00;100225.91;5016481;28;20045;-80
2023/01/19 07:17:24;;;;;;;103.95;60.35;;;;;;;-1.09;100.00;100223.41;5014325;28;20104;-80
2023/01/19 07:19:50;;;;;;;101.43;62.42;;;;;;;-1.08;100.00;100222.56;5014736;28;20030;-77
2023/01/19 07:22:15;;;;;;;108.07;63.10;;;;;;;-1.06;100.00;100234.78;5011582;28;20037;-79
2023/01/19 07:24:40;;;;;;;104.93;64.35;;;;;;;-1.08;100.00;100240.72;5013269;28;20045;-73
2023/01/19 07:27:06;;;;;;;114.88;64.70;;;;;;;-1.12;100.00;100237.13;5012163;28;20036;-74
2023/01/19 07:29:31;;;;;;;112.47;64.22;;;;;;;-1.09;100.00;100241.56;5013233;28;20034;-74
2023/01/19 07:31:57;;;;;;;110.07;64.93;;;;;;;-1.01;100.00;100247.06;5011986;28;20033;-73
2023/01/19 07:34:22;;;;;;;113.75;65.07;;;;;;;-1.02;100.00;100250.47;5011747;28;20030;-74
2023/01/19 07:36:48;;;;;;;113.03;65.15;;;;;;;-0.97;100.00;100254.16;5011768;28;20060;-73
2023/01/19 07:39:13;;;;;;;106.18;62.13;;;;;;;-1.06;100.00;100239.97;5012204;28;20096;-73
2023/01/19 07:41:39;;;;;;;113.70;64.72;;;;;;;-0.86;100.00;100258.06;5010311;28;20029;-74
2023/01/19 07:44:04;;;;;;;115.45;66.60;;;;;;;-0.84;100.00;100261.63;5012231;28;20060;-74
2023/01/19 07:46:30;;;;;;;112.25;64.38;;;;;;;-0.86;100.00;100263.25;5012368;28;20096;-75
2023/01/19 07:48:55;;;;;;;112.95;64.03;;;;;;;-0.87;100.00;100266.69;5012213;28;20116;-75
2023/01/19 07:51:21;;;;;;;108.80;64.22;;;;;;;-0.90;100.00;100272.63;5013794;28;20036;-74
2023/01/19 07:53:49;;;;;;;107.07;60.70;;;;;;;-0.90;100.00;100279.56;5015195;28;20049;-75
2023/01/19 07:56:15;;;;;;;108.10;60.50;;;;;;;-0.88;100.00;100276.16;5013826;28;20025;-74
2023/01/19 07:58:40;;;;;;;108.20;61.38;;;;;;;-0.86;100.00;100284.03;5014377;28;20034;-75
2023/01/19 08:01:11;;;;;;;104.63;60.25;;;;;;;-0.87;100.00;100279.69;5013936;28;20030;-77
2023/01/19 08:03:37;;;;;;;105.20;57.70;;;;;;;-0.89;100.00;100289.09;5015530;28;20037;-74
2023/01/19 08:06:04;;;;;;;103.85;59.05;;;;;;;-0.87;100.00;100292.66;5013363;28;20026;-75
2023/01/19 08:08:33;;;;;;;103.35;56.42;;;;;;;-0.84;100.00;100287.59;5011997;28;20117;-74
2023/01/19 08:10:59;;;;;;;103.47;57.65;;;;;;;-0.83;100.00;100296.25;5012998;28;20026;-75
2023/01/19 08:13:26;;;;;;;104.05;55.55;;;;;;;-0.83;100.00;100304.94;5018227;28;20045;-76
2023/01/19 08:15:53;;;;;;;107.22;56.92;;;;;;;-0.84;100.00;100297.97;5038650;28;20025;-74
2023/01/19 08:18:19;;;;;;;105.50;55.67;;;;;;;-0.86;100.00;100299.59;5034047;28;20025;-75
2023/01/19 08:20:44;;;;;;;106.43;57.75;;;;;;;-0.84;100.00;100308.34;5032780;28;20135;-75
2023/01/19 08:23:10;;;;;;;111.82;58.05;;;;;;;-0.92;100.00;100314.91;5035538;28;20484;-75
2023/01/19 08:25:43;;;;;;;108.45;57.78;;;;;;;-0.88;100.00;100312.50;5035650;28;20492;-75
2023/01/19 08:28:09;;;;;;;115.35;58.35;;;;;;;-0.83;100.00;100322.19;5029506;28;20029;-76
2023/01/19 08:30:35;;;;;;;110.25;57.85;;;;;;;-0.77;100.00;100317.25;5035027;28;20192;-77
2023/01/19 08:33:06;;;;;;;114.97;59.65;;;;;;;-0.72;100.00;100329.59;5031174;28;20079;-76
2023/01/19 08:35:35;;;;;;;126.28;59.50;;;;;;;-0.68;100.00;100334.94;5033685;28;20036;-76
2023/01/19 08:38:01;;;;;;;114.13;57.15;;;;;;;-0.68;100.00;100330.66;5030477;28;20041;-76
2023/01/19 08:40:34;;;;;;;111.28;56.63;;;;;;;-0.68;100.00;100342.72;5035870;28;20481;-76
2023/01/19 08:43:06;;;;;;;116.50;58.42;;;;;;;-0.72;100.00;100332.22;5038660;28;20112;-76
2023/01/19 08:45:33;;;;;;;114.17;58.13;;;;;;;-0.73;100.00;100352.91;5043438;28;20476;-76
2023/01/19 08:47:58;;;;;;;106.22;57.13;;;;;;;-0.71;100.00;100352.16;5032486;28;20025;-76
2023/01/19 08:50:29;;;;;;;121.00;56.75;;;;;;;-0.74;100.00;100359.81;5034506;28;20032;-76
2023/01/19 08:52:58;;;;;;;118.05;59.67;;;;;;;-0.73;100.00;100358.09;5034700;28;20022;-77
2023/01/19 08:55:25;;;;;;;119.50;57.95;;;;;;;-0.69;100.00;100369.53;5035404;28;20037;-81
2023/01/19 08:57:51;;;;;;;123.20;59.60;;;;;;;-0.66;100.00;100365.34;5033576;28;20029;-84
2023/01/19 09:00:18;;;;;;;120.00;56.42;;;;;;;-0.65;100.00;100361.91;5035972;28;20033;-83
2023/01/19 09:02:43;;;;;;;121.93;57.95;;;;;;;-0.67;100.00;100360.06;5030935;28;20041;-76
2023/01/19 09:05:09;;;;;;;122.65;58.35;;;;;;;-0.65;100.00;100371.44;5035419;28;20037;-75
2023/01/19 09:07:35;;;;;;;128.35;59.70;;;;;;;-0.63;100.00;100370.66;5035354;28;20022;-74
2023/01/19 09:10:02;;;;;;;124.85;57.08;;;;;;;-0.57;100.00;100372.63;5035566;28;20091;-76
2023/01/19 09:12:27;;;;;;;127.38;58.70;;;;;;;-0.50;100.00;100376.38;5035329;28;20034;-75
2023/01/19 09:14:52;;;;;;;124.78;58.70;;;;;;;-0.49;100.00;100373.84;5054334;28;20059;-76
2023/01/19 09:17:18;;;;;;;125.03;58.95;;;;;;;-0.52;100.00;100373.72;5055325;28;20064;-76
2023/01/19 09:19:43;;;;;;;117.53;57.40;;;;;;;-0.49;100.00;100388.53;5055155;28;20056;-76
2023/01/19 09:22:08;;;;;;;123.22;58.97;;;;;;;-0.57;100.00;100375.22;5055247;28;20380;-76
2023/01/19 09:24:34;;;;;;;117.47;57.42;;;;;;;-0.60;100.00;100380.28;5033882;28;20120;-76
2023/01/19 09:27:00;;;;;;;112.90;56.38;;;;;;;-0.62;100.00;100388.00;5057686;28;20070;-75
2023/01/19 09:29:25;;;;;;;117.60;58.83;;;;;;;-0.56;100.00;100379.59;5057269;28;20465;-77
2023/01/19 09:32:01;;;;;;;114.85;57.97;;;;;;;-0.46;100.00;100384.34;5034480;28;20269;-77
2023/01/19 09:34:30;;;;;;;113.90;58.00;;;;;;;-0.34;100.00;100375.28;5052001;28;20039;-77
2023/01/19 09:36:55;;;;;;;109.53;55.95;;;;;;;-0.28;100.00;100393.72;5036095;28;20056;-76
2023/01/19 09:39:21;;;;;;;112.75;57.55;;;;;;;-0.23;100.00;100385.28;5054163;28;20056;-76
2023/01/19 09:42:02;;;;;;;108.80;56.63;;;;;;;-0.11;100.00;100390.09;5055791;28;20439;-76
2023/01/19 09:44:31;;;;;;;114.60;58.83;;;;;;;0.05;100.00;100403.72;5035298;28;20120;-76
2023/01/19 09:46:57;;;;;;;107.72;58.42;;;;;;;0.27;100.00;100389.84;5057590;28;20025;-76
2023/01/19 09:49:32;;;;;;;105.18;57.47;;;;;;;0.20;100.00;100395.63;5053516;28;20079;-76
2023/01/19 09:51:58;;;;;;;102.63;54.17;;;;;;;0.21;100.00;100400.00;5056595;28;20070;-76
2023/01/19 09:54:39;;;;;;;91.97;53.05;;;;;;;0.39;100.00;100415.44;5052993;28;20434;-76
2023/01/19 09:57:10;;;;;;;79.57;48.75;;;;;;;0.26;100.00;100404.56;5031700;28;20043;-76
2023/01/19 09:59:37;;;;;;;81.03;47.67;;;;;;;0.40;100.00;100406.81;5052091;28;20067;-75
2023/01/19 10:02:29;;;;;;;71.47;44.13;;;;;;;0.35;100.00;100414.44;5053918;28;20099;-75
2023/01/19 10:05:04;;;;;;;65.20;41.80;;;;;;;0.39;100.00;100420.63;5035563;28;20060;-75
2023/01/19 10:07:35;;;;;;;60.45;41.42;;;;;;;0.34;100.00;100420.47;5053532;28;20028;-76
2023/01/19 10:10:21;;;;;;;56.72;37.72;;;;;;;0.36;100.00;100423.13;5057143;28;20100;-87
2023/01/19 10:12:46;;;;;;;57.40;38.85;;;;;;;0.51;100.00;100432.41;5056821;28;20040;-75
2023/01/19 10:15:26;;;;;;;53.17;35.85;;;;;;;0.59;100.00;100434.41;5056716;28;20045;-75
2023/01/19 10:18:13;;;;;;;51.30;35.53;;;;;;;0.62;100.00;100437.13;5052933;28;20029;-87
2023/01/19 10:20:50;;;;;;;48.05;33.50;;;;;;;0.64;100.00;100435.44;5051114;28;20024;-84
2023/01/19 10:23:23;;;;;;;48.88;33.38;;;;;;;0.78;100.00;100430.78;5054447;28;20035;-87
2023/01/19 10:25:48;;;;;;;;;;;;;;;0.84;100.00;100439.69;5053422;28;20033;-85
2023/01/19 10:28:24;;;;;;;44.55;31.35;;;;;;;0.94;100.00;100435.72;5052410;28;20257;-79
2023/01/19 10:30:51;;;;;;;41.85;29.30;;;;;;;0.88;100.00;100429.41;5051582;28;20500;-77
2023/01/19 10:33:17;;;;;;;42.25;29.13;;;;;;;1.02;100.00;100441.19;5053516;28;20029;-85
2023/01/19 10:35:43;;;;;;;42.70;29.00;;;;;;;1.17;100.00;100443.50;5053692;28;20083;-75
2023/01/19 10:38:13;;;;;;;40.60;27.58;;;;;;;1.17;100.00;100436.56;5053319;28;20068;-74
2023/01/19 10:40:45;;;;;;;41.25;27.30;;;;;;;1.54;100.00;100442.16;5052465;28;20029;-74
2023/01/19 10:43:32;;;;;;;39.05;26.17;;;;;;;1.52;100.00;100431.69;5054769;28;20499;-74
2023/01/19 10:45:58;;;;;;;39.13;25.75;;;;;;;1.65;100.00;100446.03;5056075;28;20067;-76
2023/01/19 10:48:23;;;;;;;37.22;23.48;;;;;;;2.08;100.00;100442.25;5058272;28;20116;-74
2023/01/19 10:51:01;;;;;;;35.25;23.75;;;;;;;2.21;100.00;100433.09;5035520;28;20128;-86
2023/01/19 10:53:27;;;;;;;38.42;23.08;;;;;;;2.44;100.00;100435.53;5053331;28;20075;-77
2023/01/19 10:56:15;;;;;;;34.85;21.77;;;;;;;2.81;100.00;100443.59;5053376;28;20037;-87
2023/01/19 10:58:40;;;;;;;36.28;21.23;;;;;;;3.31;100.00;100441.53;5053172;28;20494;-75
2023/01/19 11:01:23;;;;;;;34.75;21.73;;;;;;;3.65;100.00;100445.91;5052852;28;20116;-86
2023/01/19 11:03:49;;;;;;;33.25;19.60;;;;;;;3.73;100.00;100438.28;5049648;28;20422;-73
2023/01/19 11:06:14;;;;;;;32.20;19.35;;;;;;;4.00;100.00;100434.59;5052453;28;20037;-73
2023/01/19 11:08:41;;;;;;;31.50;18.85;;;;;;;4.14;100.00;100438.41;5048725;28;20029;-74
2023/01/19 11:11:08;;;;;;;28.50;17.92;;;;;;;4.30;100.00;100446.66;5050347;28;20087;-74
2023/01/19 11:13:38;;;;;;;30.20;18.05;;;;;;;4.67;100.00;100443.09;5053074;28;20439;-74
2023/01/19 11:16:05;;;;;;;30.17;18.27;;;;;;;4.61;100.00;100442.09;5051717;28;20036;-73
2023/01/19 11:18:36;;;;;;;31.15;18.35;;;;;;;4.51;100.00;100441.00;5053985;28;20053;-73
2023/01/19 11:21:14;;;;;;;30.38;17.55;;;;;;;4.14;100.00;100443.66;5048135;28;20118;-81
2023/01/19 11:23:50;;;;;;;31.73;18.20;;;;;;;4.52;100.00;100435.81;5048578;28;20498;-73
2023/01/19 11:26:23;;;;;;;30.75;18.45;;;;;;;5.20;100.00;100437.25;5049006;28;20395;-72
2023/01/19 11:28:52;;;;;;;31.65;18.48;;;;;;;5.45;100.00;100437.72;5049811;28;20021;-72
2023/01/19 11:31:28;;;;;;;29.30;17.15;;;;;;;5.09;100.00;100436.13;5050776;28;20079;-73